Portada
METAR-TAF:

METAR-TAF

Aeroports :

Luang Namtha, Laos

latitud: 20-57-38N, longitud: 101-24-09E, altitud: 600 m

Observació

L'informe es va fer fa 45 minuts, a les 03:00 UTC
Vent 2 kt del Nord-Oest
Temperatura 20°C
Humitat 88%
Pressió 1020 hPa
Visibilitat: 4000 m
Núvols disperses a una alçada de 1700 ft
Cel cobert a una alçada de 9000 ft
boirina

METAR: VLLN 210300Z 32002KT 4000 BR SCT017 OVC090 20/18 Q1020 NOSIG

Hora: 09:15 (03:45 UTC)

Pronòstic

L'informe es va fer fa 4 hores i 45 minuts, a les 23:00 UTC
Pronòstic vàlid del 21 a les 00 UTC al 21 a les 24 UTC
Vent 4 kt del Oest/Nord-Oest
Visibilitat: 8000 m
Núvols disperses a una alçada de 2000 ft
Escasses núvols a una alçada de 10000 ft

TAF: VLLN 202300Z 2100/2124 30004KT 8000 SCT020 FEW100

Observacions i pronòstics meteorològics de més de 4000 aeroports (METAR i TAF).

Les estacions disponibles són els punts grocs i vermells al mapa.

Posi el ratolí al punt desitjat per veure el nom de l'estació.

Feu clic per veure les observacions i els pronòstics meteorològics.

Per canviar el mapa: feu clic els botons verds amb una creu de color negre per apropar; al botó verd amb un guió per allunyar la imatge; o en les fletxes verdes per a mapes adjacents.


METAR-TAF: